sensor_id;sensor_type;location;lat;lon;timestamp;P1;durP1;ratioP1;P2;durP2;ratioP2
8652;SDS011;4364;52.426;9.424;2022-10-17T00:01:24;4.77;;;3.60;;
8652;SDS011;4364;52.426;9.424;2022-10-17T00:03:51;4.47;;;3.40;;
8652;SDS011;4364;52.426;9.424;2022-10-17T00:06:18;4.80;;;3.37;;
8652;SDS011;4364;52.426;9.424;2022-10-17T00:08:44;4.17;;;3.10;;
8652;SDS011;4364;52.426;9.424;2022-10-17T00:11:16;6.43;;;3.37;;
8652;SDS011;4364;52.426;9.424;2022-10-17T00:13:45;3.70;;;3.30;;
8652;SDS011;4364;52.426;9.424;2022-10-17T00:16:13;6.20;;;3.73;;
8652;SDS011;4364;52.426;9.424;2022-10-17T00:18:40;4.93;;;3.47;;
8652;SDS011;4364;52.426;9.424;2022-10-17T00:21:13;7.17;;;4.50;;
8652;SDS011;4364;52.426;9.424;2022-10-17T00:23:41;5.20;;;3.93;;
8652;SDS011;4364;52.426;9.424;2022-10-17T00:26:08;6.53;;;3.93;;
8652;SDS011;4364;52.426;9.424;2022-10-17T00:28:35;4.10;;;3.67;;
8652;SDS011;4364;52.426;9.424;2022-10-17T00:31:02;4.83;;;3.40;;
8652;SDS011;4364;52.426;9.424;2022-10-17T00:33:31;6.80;;;3.43;;
8652;SDS011;4364;52.426;9.424;2022-10-17T00:36:10;4.77;;;3.40;;
8652;SDS011;4364;52.426;9.424;2022-10-17T00:38:43;3.80;;;3.20;;
8652;SDS011;4364;52.426;9.424;2022-10-17T00:41:12;3.57;;;3.27;;
8652;SDS011;4364;52.426;9.424;2022-10-17T00:46:29;4.80;;;3.00;;
8652;SDS011;4364;52.426;9.424;2022-10-17T00:49:08;4.27;;;3.00;;
8652;SDS011;4364;52.426;9.424;2022-10-17T00:51:37;4.50;;;3.27;;
8652;SDS011;4364;52.426;9.424;2022-10-17T00:54:08;3.63;;;3.10;;
8652;SDS011;4364;52.426;9.424;2022-10-17T00:56:38;4.83;;;2.83;;
8652;SDS011;4364;52.426;9.424;2022-10-17T00:59:09;5.37;;;3.20;;
8652;SDS011;4364;52.426;9.424;2022-10-17T01:01:38;2.97;;;2.67;;
8652;SDS011;4364;52.426;9.424;2022-10-17T01:04:06;4.87;;;2.90;;
8652;SDS011;4364;52.426;9.424;2022-10-17T01:06:32;3.50;;;2.87;;
8652;SDS011;4364;52.426;9.424;2022-10-17T01:08:59;4.60;;;2.83;;
8652;SDS011;4364;52.426;9.424;2022-10-17T01:11:41;3.67;;;2.90;;
8652;SDS011;4364;52.426;9.424;2022-10-17T01:23:18;4.53;;;2.67;;
8652;SDS011;4364;52.426;9.424;2022-10-17T01:25:56;4.57;;;2.90;;
8652;SDS011;4364;52.426;9.424;2022-10-17T01:28:48;3.23;;;2.87;;
8652;SDS011;4364;52.426;9.424;2022-10-17T01:31:44;4.97;;;3.30;;
8652;SDS011;4364;52.426;9.424;2022-10-17T01:34:18;3.20;;;2.90;;
8652;SDS011;4364;52.426;9.424;2022-10-17T01:36:53;3.30;;;3.00;;
8652;SDS011;4364;52.426;9.424;2022-10-17T01:42:21;4.90;;;3.20;;
8652;SDS011;4364;52.426;9.424;2022-10-17T01:47:27;3.40;;;3.10;;
8652;SDS011;4364;52.426;9.424;2022-10-17T01:50:06;6.63;;;3.70;;
8652;SDS011;4364;52.426;9.424;2022-10-17T01:52:41;3.80;;;3.50;;
8652;SDS011;4364;52.426;9.424;2022-10-17T01:55:15;4.60;;;3.50;;
8652;SDS011;4364;52.426;9.424;2022-10-17T01:57:50;5.97;;;3.43;;
8652;SDS011;4364;52.426;9.424;2022-10-17T02:00:22;4.97;;;3.47;;
8652;SDS011;4364;52.426;9.424;2022-10-17T02:02:52;4.90;;;3.60;;
8652;SDS011;4364;52.426;9.424;2022-10-17T02:05:27;4.20;;;3.53;;
8652;SDS011;4364;52.426;9.424;2022-10-17T02:07:58;4.47;;;4.03;;
8652;SDS011;4364;52.426;9.424;2022-10-17T02:13:48;6.30;;;3.73;;
8652;SDS011;4364;52.426;9.424;2022-10-17T02:19:28;4.80;;;3.90;;
8652;SDS011;4364;52.426;9.424;2022-10-17T02:22:13;4.70;;;3.57;;
8652;SDS011;4364;52.426;9.424;2022-10-17T02:27:43;4.33;;;3.93;;
8652;SDS011;4364;52.426;9.424;2022-10-17T02:30:28;4.53;;;3.70;;
8652;SDS011;4364;52.426;9.424;2022-10-17T02:33:08;5.40;;;3.80;;
8652;SDS011;4364;52.426;9.424;2022-10-17T02:35:43;4.40;;;4.00;;
8652;SDS011;4364;52.426;9.424;2022-10-17T02:38:15;4.90;;;4.00;;
8652;SDS011;4364;52.426;9.424;2022-10-17T02:40:43;5.77;;;3.83;;
8652;SDS011;4364;52.426;9.424;2022-10-17T02:43:12;6.03;;;3.87;;
8652;SDS011;4364;52.426;9.424;2022-10-17T02:45:39;4.20;;;3.80;;
8652;SDS011;4364;52.426;9.424;2022-10-17T02:48:29;5.13;;;3.93;;
8652;SDS011;4364;52.426;9.424;2022-10-17T02:51:10;5.90;;;3.60;;
8652;SDS011;4364;52.426;9.424;2022-10-17T02:53:52;4.30;;;3.90;;
8652;SDS011;4364;52.426;9.424;2022-10-17T02:56:20;5.47;;;4.33;;
8652;SDS011;4364;52.426;9.424;2022-10-17T02:58:49;5.20;;;3.80;;
8652;SDS011;4364;52.426;9.424;2022-10-17T03:01:19;4.70;;;3.90;;
8652;SDS011;4364;52.426;9.424;2022-10-17T03:03:47;4.47;;;3.40;;
8652;SDS011;4364;52.426;9.424;2022-10-17T03:06:14;4.73;;;3.40;;
8652;SDS011;4364;52.426;9.424;2022-10-17T03:08:41;5.63;;;4.13;;
8652;SDS011;4364;52.426;9.424;2022-10-17T03:11:07;4.80;;;4.40;;
8652;SDS011;4364;52.426;9.424;2022-10-17T03:13:34;5.17;;;4.67;;
8652;SDS011;4364;52.426;9.424;2022-10-17T03:16:05;5.23;;;4.10;;
8652;SDS011;4364;52.426;9.424;2022-10-17T03:18:32;4.70;;;4.30;;
8652;SDS011;4364;52.426;9.424;2022-10-17T03:21:02;4.70;;;4.20;;
8652;SDS011;4364;52.426;9.424;2022-10-17T03:23:28;6.63;;;4.00;;
8652;SDS011;4364;52.426;9.424;2022-10-17T03:25:55;5.03;;;4.30;;
8652;SDS011;4364;52.426;9.424;2022-10-17T03:28:22;6.07;;;4.40;;
8652;SDS011;4364;52.426;9.424;2022-10-17T03:30:49;7.80;;;4.60;;
8652;SDS011;4364;52.426;9.424;2022-10-17T03:33:15;4.63;;;4.20;;
8652;SDS011;4364;52.426;9.424;2022-10-17T03:35:42;4.37;;;3.97;;
8652;SDS011;4364;52.426;9.424;2022-10-17T03:38:09;5.03;;;4.40;;
8652;SDS011;4364;52.426;9.424;2022-10-17T03:40:35;5.00;;;3.83;;
8652;SDS011;4364;52.426;9.424;2022-10-17T03:43:02;5.27;;;3.60;;
8652;SDS011;4364;52.426;9.424;2022-10-17T03:45:29;4.53;;;4.03;;
8652;SDS011;4364;52.426;9.424;2022-10-17T03:47:57;4.17;;;3.63;;
8652;SDS011;4364;52.426;9.424;2022-10-17T03:50:24;4.53;;;3.80;;
8652;SDS011;4364;52.426;9.424;2022-10-17T03:52:51;6.83;;;3.60;;
8652;SDS011;4364;52.426;9.424;2022-10-17T03:55:18;4.50;;;3.73;;
8652;SDS011;4364;52.426;9.424;2022-10-17T03:57:44;4.33;;;3.60;;
8652;SDS011;4364;52.426;9.424;2022-10-17T04:00:13;4.47;;;4.07;;
8652;SDS011;4364;52.426;9.424;2022-10-17T04:02:40;4.07;;;3.60;;
8652;SDS011;4364;52.426;9.424;2022-10-17T04:05:12;5.00;;;4.10;;
8652;SDS011;4364;52.426;9.424;2022-10-17T04:07:39;5.40;;;3.40;;
8652;SDS011;4364;52.426;9.424;2022-10-17T04:10:07;5.33;;;3.53;;
8652;SDS011;4364;52.426;9.424;2022-10-17T04:12:34;4.50;;;3.43;;
8652;SDS011;4364;52.426;9.424;2022-10-17T04:15:00;5.27;;;3.63;;
8652;SDS011;4364;52.426;9.424;2022-10-17T04:17:29;4.30;;;3.80;;
8652;SDS011;4364;52.426;9.424;2022-10-17T04:20:03;5.10;;;4.20;;
8652;SDS011;4364;52.426;9.424;2022-10-17T04:22:31;4.20;;;3.80;;
8652;SDS011;4364;52.426;9.424;2022-10-17T04:24:57;7.40;;;4.57;;
8652;SDS011;4364;52.426;9.424;2022-10-17T04:27:37;4.73;;;3.97;;
8652;SDS011;4364;52.426;9.424;2022-10-17T04:30:04;5.97;;;4.13;;
8652;SDS011;4364;52.426;9.424;2022-10-17T04:32:35;5.87;;;4.20;;
8652;SDS011;4364;52.426;9.424;2022-10-17T04:35:11;4.50;;;4.10;;
8652;SDS011;4364;52.426;9.424;2022-10-17T04:37:41;4.67;;;3.93;;
8652;SDS011;4364;52.426;9.424;2022-10-17T04:40:14;4.53;;;4.10;;
8652;SDS011;4364;52.426;9.424;2022-10-17T04:42:41;5.17;;;4.67;;
8652;SDS011;4364;52.426;9.424;2022-10-17T04:45:11;6.27;;;4.30;;
8652;SDS011;4364;52.426;9.424;2022-10-17T04:47:39;5.20;;;4.27;;
8652;SDS011;4364;52.426;9.424;2022-10-17T04:50:06;5.23;;;4.40;;
8652;SDS011;4364;52.426;9.424;2022-10-17T04:52:34;3.93;;;3.53;;
8652;SDS011;4364;52.426;9.424;2022-10-17T04:55:04;4.20;;;3.73;;
8652;SDS011;4364;52.426;9.424;2022-10-17T04:57:35;4.80;;;3.90;;
8652;SDS011;4364;52.426;9.424;2022-10-17T05:00:09;4.77;;;3.90;;
8652;SDS011;4364;52.426;9.424;2022-10-17T05:02:50;4.20;;;3.80;;
8652;SDS011;4364;52.426;9.424;2022-10-17T05:05:18;5.03;;;4.30;;
8652;SDS011;4364;52.426;9.424;2022-10-17T05:07:47;4.77;;;4.27;;
8652;SDS011;4364;52.426;9.424;2022-10-17T05:10:19;4.63;;;4.10;;
8652;SDS011;4364;52.426;9.424;2022-10-17T05:12:48;5.23;;;3.80;;
8652;SDS011;4364;52.426;9.424;2022-10-17T05:15:17;5.47;;;3.97;;
8652;SDS011;4364;52.426;9.424;2022-10-17T05:17:44;4.00;;;3.60;;
8652;SDS011;4364;52.426;9.424;2022-10-17T05:20:28;4.13;;;3.73;;
8652;SDS011;4364;52.426;9.424;2022-10-17T05:22:57;4.77;;;3.87;;
8652;SDS011;4364;52.426;9.424;2022-10-17T05:25:29;5.40;;;3.80;;
8652;SDS011;4364;52.426;9.424;2022-10-17T05:27:56;4.53;;;3.80;;
8652;SDS011;4364;52.426;9.424;2022-10-17T05:30:23;6.10;;;4.20;;
8652;SDS011;4364;52.426;9.424;2022-10-17T05:32:55;5.60;;;4.57;;
8652;SDS011;4364;52.426;9.424;2022-10-17T05:35:22;6.47;;;4.43;;
8652;SDS011;4364;52.426;9.424;2022-10-17T05:37:48;5.47;;;4.33;;
8652;SDS011;4364;52.426;9.424;2022-10-17T05:40:16;5.10;;;4.53;;
8652;SDS011;4364;52.426;9.424;2022-10-17T05:42:46;5.20;;;4.50;;
8652;SDS011;4364;52.426;9.424;2022-10-17T05:45:15;5.73;;;3.73;;
8652;SDS011;4364;52.426;9.424;2022-10-17T05:47:42;6.03;;;4.13;;
8652;SDS011;4364;52.426;9.424;2022-10-17T05:50:09;5.13;;;4.03;;
8652;SDS011;4364;52.426;9.424;2022-10-17T05:52:54;5.70;;;4.00;;
8652;SDS011;4364;52.426;9.424;2022-10-17T05:55:21;4.57;;;4.17;;
8652;SDS011;4364;52.426;9.424;2022-10-17T05:57:49;4.63;;;4.13;;
8652;SDS011;4364;52.426;9.424;2022-10-17T06:00:18;5.23;;;4.00;;
8652;SDS011;4364;52.426;9.424;2022-10-17T06:02:53;4.20;;;3.53;;
8652;SDS011;4364;52.426;9.424;2022-10-17T06:05:22;4.73;;;3.80;;
8652;SDS011;4364;52.426;9.424;2022-10-17T06:07:49;4.30;;;3.90;;
8652;SDS011;4364;52.426;9.424;2022-10-17T06:10:18;6.47;;;4.50;;
8652;SDS011;4364;52.426;9.424;2022-10-17T06:12:45;4.63;;;4.20;;
8652;SDS011;4364;52.426;9.424;2022-10-17T06:15:13;8.43;;;5.00;;
8652;SDS011;4364;52.426;9.424;2022-10-17T06:17:43;5.10;;;4.27;;
8652;SDS011;4364;52.426;9.424;2022-10-17T06:20:10;6.23;;;4.73;;
8652;SDS011;4364;52.426;9.424;2022-10-17T06:22:37;4.80;;;4.07;;
8652;SDS011;4364;52.426;9.424;2022-10-17T06:25:10;5.03;;;3.80;;
8652;SDS011;4364;52.426;9.424;2022-10-17T06:27:36;5.37;;;4.13;;
8652;SDS011;4364;52.426;9.424;2022-10-17T06:30:03;5.10;;;4.13;;
8652;SDS011;4364;52.426;9.424;2022-10-17T06:32:30;4.77;;;4.30;;
8652;SDS011;4364;52.426;9.424;2022-10-17T06:34:57;6.43;;;4.63;;
8652;SDS011;4364;52.426;9.424;2022-10-17T06:37:25;5.37;;;4.63;;
8652;SDS011;4364;52.426;9.424;2022-10-17T06:40:03;4.50;;;4.10;;
8652;SDS011;4364;52.426;9.424;2022-10-17T06:42:31;4.70;;;4.20;;
8652;SDS011;4364;52.426;9.424;2022-10-17T06:45:07;4.93;;;4.40;;
8652;SDS011;4364;52.426;9.424;2022-10-17T06:47:48;8.97;;;5.53;;
8652;SDS011;4364;52.426;9.424;2022-10-17T06:50:27;7.90;;;5.10;;
8652;SDS011;4364;52.426;9.424;2022-10-17T06:53:15;6.10;;;4.90;;
8652;SDS011;4364;52.426;9.424;2022-10-17T06:56:02;5.67;;;4.70;;
8652;SDS011;4364;52.426;9.424;2022-10-17T06:59:05;6.60;;;5.20;;
8652;SDS011;4364;52.426;9.424;2022-10-17T07:01:36;5.90;;;5.30;;
8652;SDS011;4364;52.426;9.424;2022-10-17T07:04:07;9.47;;;5.53;;
8652;SDS011;4364;52.426;9.424;2022-10-17T07:06:34;8.13;;;5.67;;
8652;SDS011;4364;52.426;9.424;2022-10-17T07:09:06;7.87;;;5.80;;
8652;SDS011;4364;52.426;9.424;2022-10-17T07:11:35;9.73;;;6.10;;
8652;SDS011;4364;52.426;9.424;2022-10-17T07:14:01;8.73;;;6.07;;
8652;SDS011;4364;52.426;9.424;2022-10-17T07:16:28;5.90;;;5.30;;
8652;SDS011;4364;52.426;9.424;2022-10-17T07:19:04;9.33;;;6.40;;
8652;SDS011;4364;52.426;9.424;2022-10-17T07:21:34;7.77;;;5.97;;
8652;SDS011;4364;52.426;9.424;2022-10-17T07:24:05;9.63;;;5.70;;
8652;SDS011;4364;52.426;9.424;2022-10-17T07:26:33;7.97;;;5.43;;
8652;SDS011;4364;52.426;9.424;2022-10-17T07:28:59;7.13;;;5.17;;
8652;SDS011;4364;52.426;9.424;2022-10-17T07:31:32;9.70;;;5.67;;
8652;SDS011;4364;52.426;9.424;2022-10-17T07:33:59;7.33;;;5.33;;
8652;SDS011;4364;52.426;9.424;2022-10-17T07:36:28;6.30;;;4.90;;
8652;SDS011;4364;52.426;9.424;2022-10-17T07:38:56;8.37;;;5.03;;
8652;SDS011;4364;52.426;9.424;2022-10-17T07:41:24;11.63;;;5.40;;
8652;SDS011;4364;52.426;9.424;2022-10-17T07:43:51;7.23;;;4.80;;
8652;SDS011;4364;52.426;9.424;2022-10-17T07:46:23;10.83;;;5.33;;
8652;SDS011;4364;52.426;9.424;2022-10-17T07:48:49;8.43;;;4.67;;
8652;SDS011;4364;52.426;9.424;2022-10-17T07:51:18;7.63;;;4.77;;
8652;SDS011;4364;52.426;9.424;2022-10-17T07:53:47;6.23;;;4.30;;
8652;SDS011;4364;52.426;9.424;2022-10-17T07:56:14;14.07;;;5.37;;
8652;SDS011;4364;52.426;9.424;2022-10-17T07:58:40;5.60;;;4.50;;
8652;SDS011;4364;52.426;9.424;2022-10-17T08:01:08;5.00;;;4.50;;
8652;SDS011;4364;52.426;9.424;2022-10-17T08:03:42;5.90;;;4.07;;
8652;SDS011;4364;52.426;9.424;2022-10-17T08:06:09;9.30;;;4.47;;
8652;SDS011;4364;52.426;9.424;2022-10-17T08:08:36;5.67;;;4.33;;
8652;SDS011;4364;52.426;9.424;2022-10-17T08:11:04;6.53;;;4.13;;
8652;SDS011;4364;52.426;9.424;2022-10-17T08:13:32;6.13;;;4.47;;
8652;SDS011;4364;52.426;9.424;2022-10-17T08:16:00;6.60;;;4.10;;
8652;SDS011;4364;52.426;9.424;2022-10-17T08:18:28;6.70;;;4.10;;
8652;SDS011;4364;52.426;9.424;2022-10-17T08:20:58;8.77;;;4.23;;
8652;SDS011;4364;52.426;9.424;2022-10-17T08:23:27;8.50;;;4.17;;
8652;SDS011;4364;52.426;9.424;2022-10-17T08:25:57;11.20;;;4.40;;
8652;SDS011;4364;52.426;9.424;2022-10-17T08:28:25;5.97;;;4.07;;
8652;SDS011;4364;52.426;9.424;2022-10-17T08:30:52;6.47;;;4.03;;
8652;SDS011;4364;52.426;9.424;2022-10-17T08:33:18;7.47;;;3.93;;
8652;SDS011;4364;52.426;9.424;2022-10-17T08:35:45;7.60;;;3.97;;
8652;SDS011;4364;52.426;9.424;2022-10-17T08:38:11;7.10;;;3.97;;
8652;SDS011;4364;52.426;9.424;2022-10-17T08:40:40;6.97;;;4.10;;
8652;SDS011;4364;52.426;9.424;2022-10-17T08:46:01;4.83;;;3.90;;
8652;SDS011;4364;52.426;9.424;2022-10-17T08:48:32;8.33;;;3.80;;
8652;SDS011;4364;52.426;9.424;2022-10-17T08:51:04;7.07;;;4.47;;
8652;SDS011;4364;52.426;9.424;2022-10-17T08:53:40;5.47;;;3.50;;
8652;SDS011;4364;52.426;9.424;2022-10-17T08:56:17;6.30;;;3.43;;
8652;SDS011;4364;52.426;9.424;2022-10-17T08:58:50;5.53;;;3.73;;
8652;SDS011;4364;52.426;9.424;2022-10-17T09:01:39;6.93;;;3.80;;
8652;SDS011;4364;52.426;9.424;2022-10-17T09:04:21;7.27;;;4.20;;
8652;SDS011;4364;52.426;9.424;2022-10-17T09:07:12;6.13;;;3.57;;
8652;SDS011;4364;52.426;9.424;2022-10-17T09:13:02;4.47;;;4.03;;
8652;SDS011;4364;52.426;9.424;2022-10-17T09:18:12;4.63;;;4.00;;
8652;SDS011;4364;52.426;9.424;2022-10-17T09:20:51;5.57;;;3.80;;
8652;SDS011;4364;52.426;9.424;2022-10-17T09:23:21;4.00;;;3.60;;
8652;SDS011;4364;52.426;9.424;2022-10-17T09:25:55;4.50;;;4.00;;
8652;SDS011;4364;52.426;9.424;2022-10-17T09:28:34;6.33;;;3.73;;
8652;SDS011;4364;52.426;9.424;2022-10-17T09:31:23;5.63;;;3.70;;
8652;SDS011;4364;52.426;9.424;2022-10-17T09:33:53;6.40;;;5.07;;
8652;SDS011;4364;52.426;9.424;2022-10-17T09:36:29;8.70;;;5.53;;
8652;SDS011;4364;52.426;9.424;2022-10-17T09:39:03;9.57;;;4.30;;
8652;SDS011;4364;52.426;9.424;2022-10-17T09:41:39;8.27;;;4.40;;
8652;SDS011;4364;52.426;9.424;2022-10-17T09:44:22;6.17;;;3.63;;
8652;SDS011;4364;52.426;9.424;2022-10-17T09:49:31;4.27;;;3.43;;
8652;SDS011;4364;52.426;9.424;2022-10-17T09:52:00;8.40;;;4.00;;
8652;SDS011;4364;52.426;9.424;2022-10-17T09:54:40;5.73;;;3.90;;
8652;SDS011;4364;52.426;9.424;2022-10-17T09:57:10;7.80;;;3.50;;
8652;SDS011;4364;52.426;9.424;2022-10-17T09:59:43;6.43;;;3.63;;
8652;SDS011;4364;52.426;9.424;2022-10-17T10:02:16;4.37;;;3.83;;
8652;SDS011;4364;52.426;9.424;2022-10-17T10:07:45;6.03;;;3.60;;
8652;SDS011;4364;52.426;9.424;2022-10-17T10:10:29;6.83;;;3.87;;
8652;SDS011;4364;52.426;9.424;2022-10-17T10:15:46;5.13;;;3.63;;
8652;SDS011;4364;52.426;9.424;2022-10-17T10:21:10;4.97;;;3.60;;
8652;SDS011;4364;52.426;9.424;2022-10-17T10:26:45;5.70;;;3.97;;
8652;SDS011;4364;52.426;9.424;2022-10-17T10:29:30;9.00;;;3.97;;
8652;SDS011;4364;52.426;9.424;2022-10-17T10:32:09;7.47;;;4.00;;
8652;SDS011;4364;52.426;9.424;2022-10-17T10:37:53;4.73;;;3.37;;
8652;SDS011;4364;52.426;9.424;2022-10-17T10:43:03;7.67;;;3.20;;
8652;SDS011;4364;52.426;9.424;2022-10-17T10:48:33;5.63;;;3.40;;
8652;SDS011;4364;52.426;9.424;2022-10-17T10:51:45;8.47;;;3.53;;
8652;SDS011;4364;52.426;9.424;2022-10-17T10:54:20;7.73;;;3.30;;
8652;SDS011;4364;52.426;9.424;2022-10-17T10:56:52;8.17;;;4.03;;
8652;SDS011;4364;52.426;9.424;2022-10-17T10:59:37;6.30;;;3.47;;
8652;SDS011;4364;52.426;9.424;2022-10-17T11:05:00;7.00;;;3.67;;
8652;SDS011;4364;52.426;9.424;2022-10-17T11:07:33;5.50;;;3.17;;
8652;SDS011;4364;52.426;9.424;2022-10-17T11:12:55;8.93;;;3.30;;
8652;SDS011;4364;52.426;9.424;2022-10-17T11:21:14;16.07;;;5.27;;
8652;SDS011;4364;52.426;9.424;2022-10-17T11:23:47;6.50;;;4.20;;
8652;SDS011;4364;52.426;9.424;2022-10-17T11:26:20;6.33;;;3.40;;
8652;SDS011;4364;52.426;9.424;2022-10-17T11:28:55;7.20;;;3.60;;
8652;SDS011;4364;52.426;9.424;2022-10-17T11:31:24;7.27;;;3.53;;
8652;SDS011;4364;52.426;9.424;2022-10-17T11:34:01;5.83;;;3.60;;
8652;SDS011;4364;52.426;9.424;2022-10-17T11:36:35;6.10;;;3.33;;
8652;SDS011;4364;52.426;9.424;2022-10-17T11:39:06;8.50;;;3.27;;
8652;SDS011;4364;52.426;9.424;2022-10-17T11:46:56;6.03;;;3.83;;
8652;SDS011;4364;52.426;9.424;2022-10-17T11:49:28;7.63;;;3.43;;
8652;SDS011;4364;52.426;9.424;2022-10-17T11:55:10;6.40;;;3.70;;
8652;SDS011;4364;52.426;9.424;2022-10-17T11:57:55;10.97;;;3.73;;
8652;SDS011;4364;52.426;9.424;2022-10-17T12:09:14;6.20;;;3.80;;
8652;SDS011;4364;52.426;9.424;2022-10-17T12:11:53;8.90;;;3.97;;
8652;SDS011;4364;52.426;9.424;2022-10-17T12:17:22;7.00;;;3.87;;
8652;SDS011;4364;52.426;9.424;2022-10-17T12:20:15;4.57;;;3.33;;
8652;SDS011;4364;52.426;9.424;2022-10-17T12:22:46;7.73;;;4.20;;
8652;SDS011;4364;52.426;9.424;2022-10-17T12:25:18;8.33;;;4.00;;
8652;SDS011;4364;52.426;9.424;2022-10-17T12:27:48;9.50;;;4.00;;
8652;SDS011;4364;52.426;9.424;2022-10-17T12:30:17;5.20;;;3.80;;
8652;SDS011;4364;52.426;9.424;2022-10-17T12:33:12;11.67;;;4.00;;
8652;SDS011;4364;52.426;9.424;2022-10-17T12:35:48;8.50;;;3.90;;
8652;SDS011;4364;52.426;9.424;2022-10-17T12:54:07;5.93;;;4.27;;
8652;SDS011;4364;52.426;9.424;2022-10-17T12:56:46;7.20;;;3.67;;
8652;SDS011;4364;52.426;9.424;2022-10-17T12:59:15;5.47;;;4.03;;
8652;SDS011;4364;52.426;9.424;2022-10-17T13:01:48;4.50;;;3.50;;
8652;SDS011;4364;52.426;9.424;2022-10-17T13:04:18;6.60;;;3.67;;
8652;SDS011;4364;52.426;9.424;2022-10-17T13:06:47;6.00;;;4.33;;
8652;SDS011;4364;52.426;9.424;2022-10-17T13:09:26;8.67;;;4.37;;
8652;SDS011;4364;52.426;9.424;2022-10-17T13:11:54;8.97;;;4.40;;
8652;SDS011;4364;52.426;9.424;2022-10-17T13:14:27;8.43;;;4.97;;
8652;SDS011;4364;52.426;9.424;2022-10-17T13:16:59;9.63;;;4.90;;
8652;SDS011;4364;52.426;9.424;2022-10-17T13:19:38;9.70;;;5.07;;
8652;SDS011;4364;52.426;9.424;2022-10-17T13:22:16;5.57;;;4.13;;
8652;SDS011;4364;52.426;9.424;2022-10-17T13:24:46;11.90;;;5.10;;
8652;SDS011;4364;52.426;9.424;2022-10-17T13:29:46;9.73;;;5.23;;
8652;SDS011;4364;52.426;9.424;2022-10-17T13:32:13;8.00;;;5.47;;
8652;SDS011;4364;52.426;9.424;2022-10-17T13:34:39;10.03;;;5.53;;
8652;SDS011;4364;52.426;9.424;2022-10-17T13:37:07;8.63;;;5.77;;
8652;SDS011;4364;52.426;9.424;2022-10-17T13:39:39;8.67;;;5.00;;
8652;SDS011;4364;52.426;9.424;2022-10-17T13:42:23;10.77;;;5.10;;
8652;SDS011;4364;52.426;9.424;2022-10-17T13:44:55;9.93;;;5.80;;
8652;SDS011;4364;52.426;9.424;2022-10-17T13:47:28;10.30;;;6.10;;
8652;SDS011;4364;52.426;9.424;2022-10-17T13:49:59;7.40;;;5.37;;
8652;SDS011;4364;52.426;9.424;2022-10-17T13:52:27;7.47;;;5.40;;
8652;SDS011;4364;52.426;9.424;2022-10-17T13:55:05;6.83;;;5.60;;
8652;SDS011;4364;52.426;9.424;2022-10-17T13:57:34;9.50;;;5.63;;
8652;SDS011;4364;52.426;9.424;2022-10-17T14:00:03;9.43;;;5.30;;
8652;SDS011;4364;52.426;9.424;2022-10-17T14:02:41;7.67;;;5.73;;
8652;SDS011;4364;52.426;9.424;2022-10-17T14:07:54;7.70;;;5.80;;
8652;SDS011;4364;52.426;9.424;2022-10-17T14:10:38;8.50;;;5.57;;
8652;SDS011;4364;52.426;9.424;2022-10-17T14:13:06;13.03;;;5.93;;
8652;SDS011;4364;52.426;9.424;2022-10-17T14:15:34;10.07;;;6.20;;
8652;SDS011;4364;52.426;9.424;2022-10-17T14:18:02;8.90;;;5.70;;
8652;SDS011;4364;52.426;9.424;2022-10-17T14:20:34;11.07;;;5.77;;
8652;SDS011;4364;52.426;9.424;2022-10-17T14:23:47;8.60;;;5.80;;
8652;SDS011;4364;52.426;9.424;2022-10-17T14:28:47;12.20;;;6.00;;
8652;SDS011;4364;52.426;9.424;2022-10-17T14:31:28;10.53;;;5.87;;
8652;SDS011;4364;52.426;9.424;2022-10-17T14:33:56;9.97;;;6.00;;
8652;SDS011;4364;52.426;9.424;2022-10-17T14:36:31;10.37;;;5.67;;
8652;SDS011;4364;52.426;9.424;2022-10-17T14:39:00;8.20;;;5.80;;
8652;SDS011;4364;52.426;9.424;2022-10-17T14:41:29;7.70;;;5.50;;
8652;SDS011;4364;52.426;9.424;2022-10-17T14:44:27;16.33;;;7.07;;
8652;SDS011;4364;52.426;9.424;2022-10-17T14:47:00;23.73;;;7.70;;
8652;SDS011;4364;52.426;9.424;2022-10-17T14:49:50;64.20;;;12.53;;
8652;SDS011;4364;52.426;9.424;2022-10-17T14:52:28;25.20;;;8.93;;
8652;SDS011;4364;52.426;9.424;2022-10-17T14:54:58;70.17;;;14.90;;
8652;SDS011;4364;52.426;9.424;2022-10-17T14:59:59;82.23;;;15.57;;
8652;SDS011;4364;52.426;9.424;2022-10-17T15:02:28;80.60;;;15.73;;
8652;SDS011;4364;52.426;9.424;2022-10-17T15:04:56;18.00;;;8.10;;
8652;SDS011;4364;52.426;9.424;2022-10-17T15:07:24;11.77;;;7.70;;
8652;SDS011;4364;52.426;9.424;2022-10-17T15:09:51;10.67;;;7.83;;
8652;SDS011;4364;52.426;9.424;2022-10-17T15:12:20;10.53;;;7.10;;
8652;SDS011;4364;52.426;9.424;2022-10-17T15:14:49;9.57;;;6.83;;
8652;SDS011;4364;52.426;9.424;2022-10-17T15:17:21;13.03;;;7.03;;
8652;SDS011;4364;52.426;9.424;2022-10-17T15:19:50;10.03;;;6.47;;
8652;SDS011;4364;52.426;9.424;2022-10-17T15:22:17;8.73;;;6.47;;
8652;SDS011;4364;52.426;9.424;2022-10-17T15:24:44;12.83;;;6.73;;
8652;SDS011;4364;52.426;9.424;2022-10-17T15:29:43;9.30;;;6.57;;
8652;SDS011;4364;52.426;9.424;2022-10-17T15:32:09;12.37;;;6.60;;
8652;SDS011;4364;52.426;9.424;2022-10-17T15:34:36;8.83;;;5.80;;
8652;SDS011;4364;52.426;9.424;2022-10-17T15:37:04;12.20;;;7.00;;
8652;SDS011;4364;52.426;9.424;2022-10-17T15:39:32;13.23;;;7.10;;
8652;SDS011;4364;52.426;9.424;2022-10-17T15:41:58;12.87;;;6.87;;
8652;SDS011;4364;52.426;9.424;2022-10-17T15:44:27;10.97;;;6.80;;
8652;SDS011;4364;52.426;9.424;2022-10-17T15:46:54;8.80;;;6.73;;
8652;SDS011;4364;52.426;9.424;2022-10-17T15:49:22;9.77;;;6.80;;
8652;SDS011;4364;52.426;9.424;2022-10-17T15:51:49;9.57;;;7.13;;
8652;SDS011;4364;52.426;9.424;2022-10-17T15:54:20;12.83;;;7.13;;
8652;SDS011;4364;52.426;9.424;2022-10-17T15:56:48;11.77;;;7.30;;
8652;SDS011;4364;52.426;9.424;2022-10-17T15:59:21;8.50;;;6.90;;
8652;SDS011;4364;52.426;9.424;2022-10-17T16:01:55;9.97;;;6.63;;
8652;SDS011;4364;52.426;9.424;2022-10-17T16:04:22;10.43;;;6.60;;
8652;SDS011;4364;52.426;9.424;2022-10-17T16:06:52;11.97;;;6.80;;
8652;SDS011;4364;52.426;9.424;2022-10-17T16:09:18;13.50;;;6.77;;
8652;SDS011;4364;52.426;9.424;2022-10-17T16:11:45;11.80;;;7.03;;
8652;SDS011;4364;52.426;9.424;2022-10-17T16:14:13;9.73;;;6.80;;
8652;SDS011;4364;52.426;9.424;2022-10-17T16:16:41;12.00;;;6.43;;
8652;SDS011;4364;52.426;9.424;2022-10-17T16:19:09;12.03;;;6.70;;
8652;SDS011;4364;52.426;9.424;2022-10-17T16:21:38;14.60;;;6.53;;
8652;SDS011;4364;52.426;9.424;2022-10-17T16:24:08;10.03;;;6.03;;
8652;SDS011;4364;52.426;9.424;2022-10-17T16:26:36;11.77;;;6.10;;
8652;SDS011;4364;52.426;9.424;2022-10-17T16:29:06;11.27;;;6.77;;
8652;SDS011;4364;52.426;9.424;2022-10-17T16:31:34;7.93;;;6.63;;
8652;SDS011;4364;52.426;9.424;2022-10-17T16:34:04;7.10;;;6.13;;
8652;SDS011;4364;52.426;9.424;2022-10-17T16:36:32;13.17;;;6.50;;
8652;SDS011;4364;52.426;9.424;2022-10-17T16:39:00;9.73;;;6.30;;
8652;SDS011;4364;52.426;9.424;2022-10-17T16:41:28;9.63;;;6.80;;
8652;SDS011;4364;52.426;9.424;2022-10-17T16:44:00;8.53;;;6.13;;
8652;SDS011;4364;52.426;9.424;2022-10-17T16:46:30;8.20;;;6.77;;
8652;SDS011;4364;52.426;9.424;2022-10-17T16:48:57;11.27;;;6.87;;
8652;SDS011;4364;52.426;9.424;2022-10-17T16:51:25;12.53;;;7.37;;
8652;SDS011;4364;52.426;9.424;2022-10-17T16:53:52;12.33;;;7.37;;
8652;SDS011;4364;52.426;9.424;2022-10-17T16:56:22;11.23;;;7.17;;
8652;SDS011;4364;52.426;9.424;2022-10-17T16:58:49;9.50;;;6.87;;
8652;SDS011;4364;52.426;9.424;2022-10-17T17:01:17;12.00;;;7.43;;
8652;SDS011;4364;52.426;9.424;2022-10-17T17:03:48;10.07;;;7.70;;
8652;SDS011;4364;52.426;9.424;2022-10-17T17:06:37;9.13;;;7.33;;
8652;SDS011;4364;52.426;9.424;2022-10-17T17:09:02;13.83;;;7.97;;
8652;SDS011;4364;52.426;9.424;2022-10-17T17:11:31;10.37;;;8.70;;
8652;SDS011;4364;52.426;9.424;2022-10-17T17:13:58;14.73;;;8.40;;
8652;SDS011;4364;52.426;9.424;2022-10-17T17:16:27;8.17;;;7.30;;
8652;SDS011;4364;52.426;9.424;2022-10-17T17:18:56;14.23;;;9.10;;
8652;SDS011;4364;52.426;9.424;2022-10-17T17:21:25;14.07;;;8.90;;
8652;SDS011;4364;52.426;9.424;2022-10-17T17:23:54;11.90;;;9.37;;
8652;SDS011;4364;52.426;9.424;2022-10-17T17:26:24;9.70;;;7.57;;
8652;SDS011;4364;52.426;9.424;2022-10-17T17:28:52;15.63;;;9.73;;
8652;SDS011;4364;52.426;9.424;2022-10-17T17:31:20;14.53;;;10.27;;
8652;SDS011;4364;52.426;9.424;2022-10-17T17:33:49;16.03;;;10.87;;
8652;SDS011;4364;52.426;9.424;2022-10-17T17:36:18;11.60;;;9.27;;
8652;SDS011;4364;52.426;9.424;2022-10-17T17:38:49;11.73;;;9.40;;